Time;durP1;ratioP1;P1;durP2;ratioP2;P2;SDS_P1;SDS_P2;PMS_P1;PMS_P2;Temp;Humidity;BMP_temperature;BMP_pressure;BME280_temperature;BME280_humidity;BME280_pressure;Samples;Min_cycle;Max_cycle;Signal;HPM_P1;HPM_P2
2022/07/03 00:01:25;;;;;;;1999.90;999.90;;;20.20;99.90;;;;;;4973361;28;20496;-73
2022/07/03 00:03:50;;;;;;;1999.90;999.90;;;20.20;99.90;;;;;;4973242;28;20648;-72
2022/07/03 00:06:16;;;;;;;1999.90;999.90;;;20.10;99.90;;;;;;4972970;28;20857;-72
2022/07/03 00:08:42;;;;;;;1999.90;999.90;;;20.00;99.90;;;;;;4973259;28;20167;-73
2022/07/03 00:11:08;;;;;;;1999.90;999.90;;;19.90;99.90;;;;;;4973242;28;20180;-73
2022/07/03 00:13:34;;;;;;;1999.90;999.90;;;19.70;99.90;;;;;;4973149;28;20235;-73
2022/07/03 00:15:59;;;;;;;1999.90;999.90;;;19.60;99.90;;;;;;4972863;28;20403;-73
2022/07/03 00:18:25;;;;;;;1999.90;999.90;;;19.60;99.90;;;;;;4973150;28;20628;-73
2022/07/03 00:21:03;;;;;;;1999.90;999.90;;;19.40;99.90;;;;;;4973119;28;20707;-72
2022/07/03 00:23:46;;;;;;;1999.90;999.90;;;19.40;99.90;;;;;;4973043;28;20192;-72
2022/07/03 00:26:13;;;;;;;1999.90;999.90;;;19.50;99.90;;;;;;4973008;28;20474;-73
2022/07/03 00:28:41;;;;;;;1999.90;999.90;;;19.50;99.90;;;;;;4973316;28;20485;-73
2022/07/03 00:31:09;;;;;;;1999.90;999.90;;;19.60;99.90;;;;;;4973019;28;20415;-72
2022/07/03 00:33:36;;;;;;;1999.90;999.90;;;19.60;99.90;;;;;;4972865;28;21013;-75
2022/07/03 00:36:02;;;;;;;1999.90;999.90;;;19.40;99.90;;;;;;4972752;28;20891;-73
2022/07/03 00:38:28;;;;;;;1999.90;999.90;;;19.40;99.90;;;;;;4972919;28;20416;-73
2022/07/03 00:40:54;;;;;;;1999.90;999.90;;;19.40;99.90;;;;;;4972867;28;20962;-73
2022/07/03 00:43:21;;;;;;;1999.90;999.90;;;19.60;99.90;;;;;;4972838;28;20194;-72
2022/07/03 00:45:49;;;;;;;1999.90;999.90;;;19.60;99.90;;;;;;4972992;28;20219;-72
2022/07/03 00:48:17;;;;;;;1999.90;999.90;;;19.70;99.90;;;;;;4972715;28;20746;-73
2022/07/03 00:50:52;;;;;;;1999.90;999.90;;;19.70;99.90;;;;;;4976385;28;20417;-72
2022/07/03 00:53:26;;;;;;;1999.90;999.90;;;19.60;99.90;;;;;;4976527;28;20440;-72
2022/07/03 00:55:54;;;;;;;1999.90;999.90;;;19.50;99.90;;;;;;4976566;28;20783;-72
2022/07/03 00:58:20;;;;;;;1999.90;999.90;;;19.40;99.90;;;;;;4976277;28;20457;-72
2022/07/03 01:00:50;;;;;;;1999.90;999.90;;;19.40;99.90;;;;;;4976455;28;20424;-72
2022/07/03 01:03:17;;;;;;;1999.90;999.90;;;19.30;99.90;;;;;;4976405;28;20846;-72
2022/07/03 01:05:49;;;;;;;1999.90;999.90;;;19.30;99.90;;;;;;4976400;28;20409;-73
2022/07/03 01:08:21;;;;;;;1999.90;999.90;;;19.20;99.90;;;;;;4976127;28;20423;-72
2022/07/03 01:11:06;;;;;;;1999.90;999.90;;;19.30;99.90;;;;;;4976417;28;20410;-73
2022/07/03 01:13:39;;;;;;;1999.90;999.90;;;19.30;99.90;;;;;;4976166;28;20990;-71
2022/07/03 01:16:14;;;;;;;1999.90;999.90;;;19.10;99.90;;;;;;4975923;28;20405;-73
2022/07/03 01:18:58;;;;;;;1999.90;999.90;;;19.10;99.90;;;;;;4976251;28;20413;-72
2022/07/03 01:21:42;;;;;;;1999.90;999.90;;;19.10;99.90;;;;;;4976170;28;20413;-73
2022/07/03 01:24:26;;;;;;;1999.90;999.90;;;19.10;99.90;;;;;;4975937;28;20429;-72
2022/07/03 01:26:58;;;;;;;1999.90;999.90;;;19.10;99.90;;;;;;4975798;28;20405;-73
2022/07/03 01:29:38;;;;;;;1999.90;999.90;;;19.10;99.90;;;;;;4976137;28;20412;-72
2022/07/03 01:32:05;;;;;;;1999.90;999.90;;;19.10;99.90;;;;;;4976017;28;20389;-73
2022/07/03 01:34:34;;;;;;;1999.90;999.90;;;19.10;99.90;;;;;;4975683;28;20446;-72
2022/07/03 01:37:01;;;;;;;1999.90;999.90;;;19.10;99.90;;;;;;4975579;28;20899;-71
2022/07/03 01:39:27;;;;;;;1999.90;999.90;;;19.00;99.90;;;;;;4975727;28;20871;-72
2022/07/03 01:41:55;;;;;;;1999.90;999.90;;;19.00;99.90;;;;;;4975795;28;20406;-73
2022/07/03 01:44:23;;;;;;;1999.90;999.90;;;18.90;99.90;;;;;;4975618;28;20441;-73
2022/07/03 01:46:51;;;;;;;1999.90;999.90;;;18.80;99.90;;;;;;4975449;28;20888;-73
2022/07/03 01:49:18;;;;;;;1999.90;999.90;;;18.80;99.90;;;;;;4975585;28;20420;-72
2022/07/03 01:51:48;;;;;;;1999.90;999.90;;;18.70;99.90;;;;;;4975572;28;20460;-73
2022/07/03 01:54:14;;;;;;;1999.90;999.90;;;18.60;99.90;;;;;;4975764;28;20485;-73
2022/07/03 01:56:40;;;;;;;1999.90;999.90;;;18.50;99.90;;;;;;4975213;28;20447;-73
2022/07/03 01:59:06;;;;;;;1999.90;999.90;;;18.40;99.90;;;;;;4975503;28;20506;-73
2022/07/03 02:01:47;;;;;;;1999.90;999.90;;;18.30;99.90;;;;;;4974290;28;20542;-73
2022/07/03 02:04:37;;;;;;;1999.90;999.90;;;18.20;99.90;;;;;;4975245;28;20186;-72
2022/07/03 02:07:18;;;;;;;1999.90;999.90;;;18.20;99.90;;;;;;4975099;28;20408;-72
2022/07/03 02:09:56;;;;;;;1999.90;999.90;;;18.10;99.90;;;;;;4975371;28;20462;-72
2022/07/03 02:12:27;;;;;;;1999.90;999.90;;;18.00;99.90;;;;;;4975193;28;20396;-73
2022/07/03 02:15:04;;;;;;;1999.90;999.90;;;18.00;99.90;;;;;;4975306;28;20503;-73
2022/07/03 02:17:36;;;;;;;1999.90;999.90;;;18.00;99.90;;;;;;4974879;28;20401;-73
2022/07/03 02:20:07;;;;;;;1999.90;999.90;;;18.10;99.90;;;;;;4974996;28;20556;-72
2022/07/03 02:22:36;;;;;;;1999.90;999.90;;;18.00;99.90;;;;;;4974944;28;20444;-73
2022/07/03 02:25:05;;;;;;;1999.90;999.90;;;18.10;99.90;;;;;;4974993;28;20965;-72
2022/07/03 02:27:44;;;;;;;1999.90;999.90;;;18.20;99.90;;;;;;4974670;28;20401;-73
2022/07/03 02:30:11;;;;;;;1999.90;999.90;;;18.20;99.90;;;;;;4974909;28;20420;-72
2022/07/03 02:32:48;;;;;;;1999.90;999.90;;;18.30;99.90;;;;;;4974592;28;20483;-72
2022/07/03 02:35:21;;;;;;;1999.90;999.90;;;18.30;99.90;;;;;;4974759;28;20413;-72
2022/07/03 02:38:21;;;;;;;1999.90;999.90;;;18.30;99.90;;;;;;4974529;28;20405;-73
2022/07/03 02:41:05;;;;;;;1999.90;999.90;;;18.30;99.90;;;;;;4961939;28;20482;-73
2022/07/03 02:43:31;;;;;;;1999.90;999.90;;;18.20;99.90;;;;;;4974444;28;20434;-73
2022/07/03 02:46:00;;;;;;;1999.90;999.90;;;18.20;99.90;;;;;;4974418;28;20405;-72
2022/07/03 02:48:41;;;;;;;1999.90;999.90;;;18.10;99.90;;;;;;4974686;28;20196;-73
2022/07/03 02:51:13;;;;;;;1999.90;999.90;;;18.00;99.90;;;;;;4974641;28;20433;-72
2022/07/03 02:53:48;;;;;;;1999.90;999.90;;;18.00;99.90;;;;;;4974489;28;20458;-72
2022/07/03 02:56:42;;;;;;;1999.90;999.90;;;17.90;99.90;;;;;;4974317;28;20432;-71
2022/07/03 02:59:21;;;;;;;1999.90;999.90;;;17.90;99.90;;;;;;4966364;28;20460;-73
2022/07/03 03:02:16;;;;;;;1999.90;999.90;;;17.90;99.90;;;;;;4974459;28;20412;-72
2022/07/03 03:05:06;;;;;;;1999.90;999.90;;;17.80;99.90;;;;;;4966266;28;20774;-72
2022/07/03 03:07:57;;;;;;;1999.90;999.90;;;17.80;99.90;;;;;;4974035;28;20403;-72
2022/07/03 03:10:23;;;;;;;1999.90;999.90;;;17.60;99.90;;;;;;4974273;28;20824;-72
2022/07/03 03:12:58;;;;;;;1999.90;999.90;;;17.60;99.90;;;;;;4974026;28;20455;-72
2022/07/03 03:15:29;;;;;;;1999.90;999.90;;;17.50;99.90;;;;;;4972997;28;20203;-72
2022/07/03 03:17:59;;;;;;;1999.90;999.90;;;17.40;99.90;;;;;;4974028;28;20407;-72
2022/07/03 03:20:29;;;;;;;1999.90;999.90;;;17.40;99.90;;;;;;4974019;28;20480;-72
2022/07/03 03:23:23;;;;;;;1999.90;999.90;;;17.30;99.90;;;;;;4974038;28;20419;-71
2022/07/03 03:25:52;;;;;;;1999.90;999.90;;;17.20;99.90;;;;;;4973896;28;20421;-71
2022/07/03 03:28:18;;;;;;;1999.90;999.90;;;17.10;99.90;;;;;;4973956;28;20412;-73
2022/07/03 03:30:44;;;;;;;1999.90;999.90;;;17.00;99.90;;;;;;4973921;28;20412;-73
2022/07/03 03:33:10;;;;;;;1999.90;999.90;;;16.90;99.90;;;;;;4974041;28;20458;-72
2022/07/03 03:35:38;;;;;;;1999.90;999.90;;;16.90;99.90;;;;;;4973615;28;20198;-71
2022/07/03 03:38:04;;;;;;;1999.90;999.90;;;16.90;99.90;;;;;;4973429;28;20429;-72
2022/07/03 03:40:33;;;;;;;1999.90;999.90;;;16.80;99.90;;;;;;4973595;28;20449;-71
2022/07/03 03:42:59;;;;;;;1999.90;999.90;;;16.70;99.90;;;;;;4973625;28;20427;-71
2022/07/03 03:45:24;;;;;;;1999.90;999.90;;;16.70;99.90;;;;;;4973571;28;20413;-71
2022/07/03 03:47:50;;;;;;;1999.90;999.90;;;16.60;99.90;;;;;;4973186;28;20407;-71
2022/07/03 03:50:16;;;;;;;1999.90;999.90;;;16.60;99.90;;;;;;4973432;28;20213;-72
2022/07/03 03:52:42;;;;;;;1999.90;999.90;;;16.60;99.90;;;;;;4973342;28;20681;-71
2022/07/03 03:55:10;;;;;;;1999.90;999.90;;;16.50;99.90;;;;;;4973612;28;20414;-71
2022/07/03 03:57:36;;;;;;;1999.90;999.90;;;16.40;99.90;;;;;;4973102;28;20592;-71
2022/07/03 04:00:04;;;;;;;1999.90;999.90;;;16.40;99.90;;;;;;4973329;28;20446;-71
2022/07/03 04:02:30;;;;;;;1999.90;999.90;;;16.50;99.90;;;;;;4973046;28;20467;-72
2022/07/03 04:04:56;;;;;;;1999.90;999.90;;;16.60;99.90;;;;;;4973227;28;20407;-71
2022/07/03 04:07:21;;;;;;;1999.90;999.90;;;16.60;99.90;;;;;;4973014;28;20176;-71
2022/07/03 04:09:47;;;;;;;1999.90;999.90;;;16.50;99.90;;;;;;4973313;28;20189;-71
2022/07/03 04:12:13;;;;;;;1999.90;999.90;;;16.50;99.90;;;;;;4973204;28;20540;-71
2022/07/03 04:14:38;;;;;;;1999.90;999.90;;;16.60;99.90;;;;;;4973105;28;20196;-71
2022/07/03 04:17:04;;;;;;;1999.90;999.90;;;16.50;99.90;;;;;;4972832;28;20179;-72
2022/07/03 04:19:30;;;;;;;1999.90;999.90;;;16.60;99.90;;;;;;4972996;28;20823;-71
2022/07/03 04:21:56;;;;;;;1999.90;999.90;;;16.50;99.90;;;;;;4973088;28;20171;-71
2022/07/03 04:24:21;;;;;;;1999.90;999.90;;;16.30;99.90;;;;;;4974547;28;20237;-71
2022/07/03 04:26:47;;;;;;;1999.90;999.90;;;15.80;99.90;;;;;;4976794;28;20172;-71
2022/07/03 04:29:13;;;;;;;1999.90;999.90;;;15.70;99.90;;;;;;4977153;28;20672;-71
2022/07/03 04:31:39;;;;;;;1999.90;999.90;;;15.70;99.90;;;;;;4977019;28;20408;-71
2022/07/03 04:34:04;;;;;;;1999.90;999.90;;;15.90;99.90;;;;;;4976836;28;20456;-71
2022/07/03 04:36:30;;;;;;;1999.90;999.90;;;16.00;99.90;;;;;;4976598;28;20170;-71
2022/07/03 04:38:56;;;;;;;1999.90;999.90;;;16.10;99.90;;;;;;4976826;28;20194;-71
2022/07/03 04:41:21;;;;;;;1999.90;999.90;;;16.30;99.90;;;;;;4976826;28;20227;-71
2022/07/03 04:43:47;;;;;;;1999.90;999.90;;;16.40;99.90;;;;;;4976672;28;20223;-72
2022/07/03 04:46:12;;;;;;;1999.90;999.90;;;16.60;99.90;;;;;;4976432;28;20169;-71
2022/07/03 04:48:38;;;;;;;1999.90;999.90;;;16.80;99.90;;;;;;4976743;28;20633;-71
2022/07/03 04:51:04;;;;;;;1999.90;999.90;;;16.90;99.90;;;;;;4976663;28;20177;-71
2022/07/03 04:53:29;;;;;;;1999.90;999.90;;;17.10;99.90;;;;;;4976759;28;20574;-72
2022/07/03 04:55:55;;;;;;;1999.90;999.90;;;17.20;99.90;;;;;;4976546;28;20577;-73
2022/07/03 04:58:21;;;;;;;1999.90;999.90;;;17.40;99.90;;;;;;4976482;28;20177;-71
2022/07/03 05:00:47;;;;;;;1999.90;999.90;;;17.50;99.90;;;;;;4976404;28;20231;-71
2022/07/03 05:03:12;;;;;;;1999.90;999.90;;;17.60;99.90;;;;;;4976432;28;20441;-72
2022/07/03 05:05:38;;;;;;;1999.90;999.90;;;17.70;99.90;;;;;;4976403;28;20404;-71
2022/07/03 05:08:04;;;;;;;1999.90;999.90;;;17.80;99.90;;;;;;4976067;28;20169;-71
2022/07/03 05:10:30;;;;;;;1999.90;999.90;;;17.90;99.90;;;;;;4976338;28;20222;-71
2022/07/03 05:12:55;;;;;;;1999.90;999.90;;;17.90;99.90;;;;;;4976197;28;20524;-72
2022/07/03 05:15:21;;;;;;;1999.90;999.90;;;18.10;99.90;;;;;;4976176;28;20166;-71
2022/07/03 05:17:47;;;;;;;1999.90;999.90;;;18.10;99.90;;;;;;4975836;28;20177;-71
2022/07/03 05:20:27;;;;;;;1999.90;999.90;;;18.20;99.90;;;;;;4976234;28;20213;-71
2022/07/03 05:22:59;;;;;;;1999.90;999.90;;;18.30;99.90;;;;;;4976027;28;20567;-71
2022/07/03 05:25:25;;;;;;;1999.90;999.90;;;18.30;99.90;;;;;;4976119;28;20405;-71
2022/07/03 05:27:52;;;;;;;1999.90;999.90;;;18.30;99.90;;;;;;4975746;28;20401;-71
2022/07/03 05:30:19;;;;;;;1999.90;999.90;;;18.30;99.90;;;;;;4975943;28;20411;-71
2022/07/03 05:32:44;;;;;;;1999.90;999.90;;;18.20;99.90;;;;;;4975796;28;20457;-71
2022/07/03 05:35:10;;;;;;;1999.90;999.90;;;18.10;99.90;;;;;;4975727;28;20413;-71
2022/07/03 05:37:36;;;;;;;1999.90;999.90;;;18.10;99.90;;;;;;4975594;28;20179;-70
2022/07/03 05:40:03;;;;;;;1999.90;999.90;;;18.10;99.90;;;;;;4975750;28;20204;-71
2022/07/03 05:42:28;;;;;;;1999.90;999.90;;;18.10;99.90;;;;;;4974447;28;20177;-71
2022/07/03 05:44:54;;;;;;;1999.90;999.90;;;18.10;99.90;;;;;;4976075;28;20761;-71
2022/07/03 05:47:20;;;;;;;1999.90;999.90;;;18.10;99.90;;;;;;4975597;28;20171;-71
2022/07/03 05:49:45;;;;;;;1999.90;999.90;;;18.10;99.90;;;;;;4975626;28;20543;-71
2022/07/03 05:52:11;;;;;;;1999.90;999.90;;;18.20;99.90;;;;;;4975535;28;20172;-71
2022/07/03 05:54:36;;;;;;;1999.90;999.90;;;18.30;99.90;;;;;;4975485;28;20204;-72
2022/07/03 05:57:02;;;;;;;1999.90;999.90;;;18.40;99.90;;;;;;4975259;28;20542;-71
2022/07/03 05:59:28;;;;;;;1999.90;999.90;;;18.40;99.90;;;;;;4975340;28;20257;-71
2022/07/03 06:01:53;;;;;;;1999.90;999.90;;;18.50;99.90;;;;;;4975414;28;20918;-71
2022/07/03 06:04:19;;;;;;;1999.90;999.90;;;18.50;99.90;;;;;;4975335;28;20788;-71
2022/07/03 06:06:44;;;;;;;1999.90;999.90;;;18.50;99.90;;;;;;4974987;28;20195;-71
2022/07/03 06:09:10;;;;;;;1999.90;999.90;;;18.50;99.90;;;;;;4975286;28;20251;-71
2022/07/03 06:11:36;;;;;;;1999.90;999.90;;;18.60;99.90;;;;;;4975242;28;20179;-71
2022/07/03 06:14:01;;;;;;;1999.90;999.90;;;18.70;99.90;;;;;;4975040;28;20184;-71
2022/07/03 06:16:27;;;;;;;1999.90;999.90;;;18.70;99.90;;;;;;4974848;28;20278;-71
2022/07/03 06:18:52;;;;;;;1999.90;999.90;;;18.80;99.90;;;;;;4975000;28;20164;-71
2022/07/03 06:21:18;;;;;;;1999.90;999.90;;;18.90;99.90;;;;;;4975120;28;20559;-71
2022/07/03 06:23:44;;;;;;;1999.90;999.90;;;18.90;99.90;;;;;;4974857;28;20192;-71
2022/07/03 06:26:09;;;;;;;1999.90;999.90;;;19.10;99.90;;;;;;4974649;28;20169;-72
2022/07/03 06:28:35;;;;;;;1999.90;999.90;;;19.10;99.90;;;;;;4974813;28;20199;-71
2022/07/03 06:31:00;;;;;;;1999.90;999.90;;;19.20;99.90;;;;;;4974842;28;20945;-71
2022/07/03 06:33:26;;;;;;;1999.90;999.90;;;19.20;99.90;;;;;;4974599;28;20202;-72
2022/07/03 06:35:52;;;;;;;1999.90;999.90;;;19.30;99.90;;;;;;4974627;28;20248;-72
2022/07/03 06:38:17;;;;;;;1999.90;999.90;;;19.40;99.90;;;;;;4974546;28;20646;-72
2022/07/03 06:40:43;;;;;;;1999.90;999.90;;;19.40;99.90;;;;;;4974561;28;20192;-71
2022/07/03 06:43:08;;;;;;;1999.90;999.90;;;19.50;99.90;;;;;;4974518;28;20197;-72
2022/07/03 06:45:34;;;;;;;1999.90;999.90;;;19.60;99.90;;;;;;4974565;28;20164;-72
2022/07/03 06:48:00;;;;;;;1999.90;999.90;;;19.60;99.90;;;;;;4973704;28;20629;-72
2022/07/03 06:50:25;;;;;;;1999.90;999.90;;;19.70;99.90;;;;;;4974472;28;20756;-72
2022/07/03 06:52:51;;;;;;;1999.90;999.90;;;19.80;99.90;;;;;;4974422;28;20198;-71
2022/07/03 06:55:16;;;;;;;1999.90;999.90;;;19.90;99.90;;;;;;4974418;28;20654;-72
2022/07/03 06:57:42;;;;;;;1999.90;999.90;;;19.90;99.90;;;;;;4974138;28;20207;-72
2022/07/03 07:00:08;;;;;;;1999.90;999.90;;;20.00;99.90;;;;;;4974160;28;20205;-72
2022/07/03 07:02:34;;;;;;;1999.90;999.90;;;20.10;99.90;;;;;;4974234;28;20209;-72
2022/07/03 07:04:59;;;;;;;1999.90;999.90;;;20.10;99.90;;;;;;4974277;28;20440;-71
2022/07/03 07:07:25;;;;;;;1999.90;999.90;;;20.10;99.90;;;;;;4973864;28;20170;-72
2022/07/03 07:09:51;;;;;;;1999.90;999.90;;;20.10;99.90;;;;;;4974125;28;20228;-72
2022/07/03 07:12:16;;;;;;;1999.90;999.90;;;20.10;99.90;;;;;;4974079;28;20176;-73
2022/07/03 07:14:42;;;;;;;1999.90;999.90;;;20.30;99.90;;;;;;4974449;28;20191;-72
2022/07/03 07:17:07;;;;;;;1999.90;999.90;;;20.30;99.90;;;;;;4973923;28;20172;-72
2022/07/03 07:19:33;;;;;;;1999.90;999.90;;;20.40;99.90;;;;;;4974026;28;20228;-72
2022/07/03 07:22:00;;;;;;;1999.90;999.90;;;20.30;99.90;;;;;;4973883;28;20190;-73
2022/07/03 07:24:27;;;;;;;1999.90;999.90;;;20.40;99.90;;;;;;4973851;28;20185;-72
2022/07/03 07:26:52;;;;;;;1999.90;999.90;;;20.60;99.90;;;;;;4973448;28;20447;-72
2022/07/03 07:29:18;;;;;;;1999.90;999.90;;;20.60;99.90;;;;;;4973789;28;20437;-72
2022/07/03 07:31:44;;;;;;;1999.90;999.90;;;20.70;99.90;;;;;;4973817;28;20172;-72
2022/07/03 07:34:09;;;;;;;1999.90;999.90;;;20.60;99.90;;;;;;4973555;28;20211;-72
2022/07/03 07:36:35;;;;;;;1999.90;999.90;;;20.70;99.90;;;;;;4973409;28;20180;-73
2022/07/03 07:39:01;;;;;;;1999.90;999.90;;;20.80;99.90;;;;;;4973551;28;20260;-72
2022/07/03 07:41:26;;;;;;;1999.90;999.90;;;20.90;99.90;;;;;;4973555;28;20171;-72
2022/07/03 07:43:52;;;;;;;1999.90;999.90;;;20.90;99.90;;;;;;4973422;28;20194;-72
2022/07/03 07:46:17;;;;;;;1999.90;999.90;;;20.90;99.90;;;;;;4973247;28;20169;-72
2022/07/03 07:48:44;;;;;;;1999.90;999.90;;;21.00;99.90;;;;;;4973340;28;20534;-73
2022/07/03 07:51:10;;;;;;;1999.90;999.90;;;21.20;99.90;;;;;;4972109;28;20173;-73
2022/07/03 07:53:36;;;;;;;1999.90;999.90;;;21.20;99.90;;;;;;4973358;28;20517;-72
2022/07/03 07:56:02;;;;;;;1999.90;999.90;;;21.20;99.90;;;;;;4973012;28;20168;-73
2022/07/03 07:58:28;;;;;;;1999.90;999.90;;;21.20;99.90;;;;;;4972493;28;20173;-72
2022/07/03 08:06:21;;;;;;;1999.90;999.90;;;21.50;99.90;;;;;;4972946;28;20450;-73
2022/07/03 08:08:47;;;;;;;1999.90;999.90;;;21.70;99.90;;;;;;4973326;28;20419;-72
2022/07/03 08:11:13;;;;;;;1999.90;999.90;;;21.80;99.90;;;;;;4973182;28;20661;-72
2022/07/03 08:13:38;;;;;;;1999.90;999.90;;;21.80;99.90;;;;;;4971939;28;20195;-72
2022/07/03 08:16:04;;;;;;;1999.90;999.90;;;21.90;99.90;;;;;;4972846;28;20252;-73
2022/07/03 08:18:30;;;;;;;1999.90;999.90;;;21.90;99.90;;;;;;4973151;28;20209;-72
2022/07/03 08:20:56;;;;;;;1999.90;999.90;;;22.00;99.90;;;;;;4972863;28;20517;-72
2022/07/03 08:23:21;;;;;;;1999.90;999.90;;;22.10;99.90;;;;;;4973073;28;20650;-72
2022/07/03 08:25:47;;;;;;;1999.90;999.90;;;22.20;99.90;;;;;;4972967;28;20166;-73
2022/07/03 08:28:12;;;;;;;1999.90;999.90;;;22.10;99.90;;;;;;4972743;28;20169;-72
2022/07/03 08:30:38;;;;;;;1999.90;999.90;;;22.20;99.90;;;;;;4973097;28;20571;-72
2022/07/03 08:33:03;;;;;;;1999.90;999.90;;;22.30;99.90;;;;;;4972794;28;20294;-72
2022/07/03 08:35:29;;;;;;;1999.90;999.90;;;22.30;99.90;;;;;;4972949;28;20256;-72
2022/07/03 08:37:55;;;;;;;1999.90;999.90;;;22.30;99.90;;;;;;4972698;28;20225;-72
2022/07/03 08:40:21;;;;;;;1999.90;999.90;;;22.20;99.90;;;;;;4972983;28;20204;-73
2022/07/03 08:42:48;;;;;;;1999.90;999.90;;;22.30;99.90;;;;;;4972816;28;20420;-73
2022/07/03 08:45:16;;;;;;;1999.90;999.90;;;22.40;99.90;;;;;;4972949;28;20415;-73
2022/07/03 08:47:46;;;;;;;1999.90;999.90;;;22.50;99.90;;;;;;4972645;28;20456;-72
2022/07/03 08:50:12;;;;;;;1999.90;999.90;;;22.50;99.90;;;;;;4972852;28;20481;-72
2022/07/03 08:52:39;;;;;;;1999.90;999.90;;;22.50;99.90;;;;;;4972806;28;20908;-72
2022/07/03 08:55:05;;;;;;;1999.90;999.90;;;22.60;99.90;;;;;;4971126;28;20392;-71
2022/07/03 08:57:35;;;;;;;1999.90;999.90;;;22.70;99.90;;;;;;4973609;28;20405;-72
2022/07/03 09:00:04;;;;;;;1999.90;999.90;;;22.80;99.90;;;;;;4973516;28;20427;-72
2022/07/03 09:02:31;;;;;;;1999.90;999.90;;;22.90;99.90;;;;;;4972858;28;20479;-71
2022/07/03 09:05:04;;;;;;;1999.90;999.90;;;23.00;99.90;;;;;;4972348;28;20460;-70
2022/07/03 09:07:37;;;;;;;1999.90;999.90;;;23.10;99.90;;;;;;4972991;28;20497;-71
2022/07/03 09:10:08;;;;;;;1999.90;999.90;;;23.20;99.90;;;;;;4974040;28;20412;-72
2022/07/03 09:12:34;;;;;;;1999.90;999.90;;;23.20;99.90;;;;;;4976804;28;20432;-71
2022/07/03 09:15:03;;;;;;;1999.90;999.90;;;23.20;99.90;;;;;;4975595;28;20384;-71
2022/07/03 09:17:30;;;;;;;1999.90;999.90;;;23.40;99.90;;;;;;4975713;28;20508;-71
2022/07/03 09:19:58;;;;;;;1999.90;999.90;;;23.50;99.90;;;;;;4975128;28;20464;-69
2022/07/03 09:22:33;;;;;;;1999.90;999.90;;;23.50;99.90;;;;;;4975778;28;20419;-73
2022/07/03 09:25:07;;;;;;;1999.90;999.90;;;23.60;99.90;;;;;;4975730;28;20433;-73
2022/07/03 09:27:33;;;;;;;1999.90;999.90;;;23.70;99.90;;;;;;4975022;28;20392;-73
2022/07/03 09:30:03;;;;;;;1999.90;999.90;;;23.90;99.90;;;;;;4975061;28;20412;-73
2022/07/03 09:32:34;;;;;;;1999.90;999.90;;;24.00;99.90;;;;;;4975486;28;20171;-73
2022/07/03 09:35:29;;;;;;;1999.90;999.90;;;23.90;99.90;;;;;;5016408;23;20531;-72
2022/07/03 09:37:56;;;;;;;1999.90;999.90;;;24.10;99.90;;;;;;4962673;28;20392;-73
2022/07/03 09:40:24;;;;;;;1999.90;999.90;;;24.10;99.90;;;;;;4975309;28;20423;-73
2022/07/03 09:43:04;;;;;;;1999.90;999.90;;;23.90;99.90;;;;;;4975295;28;20389;-73
2022/07/03 09:45:52;;;;;;;1999.90;999.90;;;24.00;99.90;;;;;;4975397;28;20460;-72
2022/07/03 09:48:29;;;;;;;1999.90;999.90;;;24.10;99.90;;;;;;4975779;28;20409;-71
2022/07/03 09:51:20;;;;;;;1999.90;999.90;;;24.10;99.90;;;;;;4974744;28;20421;-72
2022/07/03 09:53:54;;;;;;;1999.90;999.90;;;24.10;99.90;;;;;;4975890;28;20814;-73
2022/07/03 09:56:21;;;;;;;1999.90;999.90;;;24.30;99.90;;;;;;4975653;28;20436;-72
2022/07/03 09:59:00;;;;;;;1999.90;999.90;;;24.50;99.90;;;;;;4975232;28;20409;-72
2022/07/03 10:01:26;;;;;;;1999.90;999.90;;;24.50;99.90;;;;;;4975451;28;20417;-72
2022/07/03 10:03:51;;;;;;;1999.90;999.90;;;24.30;99.90;;;;;;4975969;28;20414;-72
2022/07/03 10:06:17;;;;;;;1999.90;999.90;;;24.20;99.90;;;;;;4975987;28;20244;-71
2022/07/03 10:08:43;;;;;;;1999.90;999.90;;;24.10;99.90;;;;;;4974929;28;20163;-71
2022/07/03 10:11:09;;;;;;;1999.90;999.90;;;24.30;99.90;;;;;;4974977;28;20166;-71
2022/07/03 10:13:40;;;;;;;1999.90;999.90;;;24.40;99.90;;;;;;4974718;28;20448;-70
2022/07/03 10:16:06;;;;;;;1999.90;999.90;;;24.50;99.90;;;;;;4974540;28;20258;-71
2022/07/03 10:18:36;;;;;;;1999.90;999.90;;;24.40;99.90;;;;;;4974827;28;20381;-71
2022/07/03 10:21:05;;;;;;;1999.90;999.90;;;24.40;99.90;;;;;;4974269;28;20831;-71
2022/07/03 10:23:31;;;;;;;1999.90;999.90;;;24.50;99.90;;;;;;4974217;28;20465;-71
2022/07/03 10:25:58;;;;;;;1999.90;999.90;;;24.60;99.90;;;;;;4974374;28;20383;-72
2022/07/03 10:28:24;;;;;;;1999.90;999.90;;;24.70;99.90;;;;;;4974580;28;20790;-70
2022/07/03 10:30:50;;;;;;;1999.90;999.90;;;24.80;99.90;;;;;;4974502;28;20384;-71
2022/07/03 10:33:16;;;;;;;1999.90;999.90;;;24.80;99.90;;;;;;4974378;28;20209;-71
2022/07/03 10:35:47;;;;;;;1999.90;999.90;;;24.70;99.90;;;;;;4974495;28;20787;-71
2022/07/03 10:38:35;;;;;;;1999.90;999.90;;;24.80;99.90;;;;;;4974156;28;20440;-70
2022/07/03 10:46:48;;;;;;;1999.90;999.90;;;24.80;99.90;;;;;;4973963;28;20379;-71
2022/07/03 10:49:14;;;;;;;1999.90;999.90;;;24.80;99.90;;;;;;4974200;28;20402;-71
2022/07/03 10:51:53;;;;;;;1999.90;999.90;;;24.90;99.90;;;;;;4974166;28;20380;-72
2022/07/03 10:54:26;;;;;;;1999.90;999.90;;;25.10;99.90;;;;;;4974037;28;20264;-71
2022/07/03 10:56:57;;;;;;;1999.90;999.90;;;25.30;99.90;;;;;;4973887;28;20417;-70
2022/07/03 10:59:36;;;;;;;1999.90;999.90;;;25.30;99.90;;;;;;4973817;28;20887;-71
2022/07/03 11:02:22;;;;;;;1999.90;999.90;;;25.30;99.90;;;;;;4974054;28;20385;-71
2022/07/03 11:05:00;;;;;;;1999.90;999.90;;;25.70;99.90;;;;;;4973838;28;21013;-72
2022/07/03 11:07:29;;;;;;;1999.90;999.90;;;25.70;99.90;;;;;;4973547;28;20405;-71
2022/07/03 11:10:12;;;;;;;1999.90;999.90;;;25.70;99.90;;;;;;4973712;28;20413;-72
2022/07/03 11:12:56;;;;;;;1999.90;999.90;;;25.70;99.00;;;;;;4973809;28;20427;-71
2022/07/03 11:15:33;;;;;;;1999.90;999.90;;;25.90;99.90;;;;;;4973700;28;20901;-71
2022/07/03 11:20:44;;;;;;;1999.90;999.90;;;25.90;97.50;;;;;;4974634;28;20468;-72
2022/07/03 11:23:09;;;;;;;1999.90;999.90;;;26.10;97.50;;;;;;4974169;28;20464;-72
2022/07/03 11:25:42;;;;;;;1999.90;999.90;;;26.00;95.80;;;;;;4974326;28;20413;-72
2022/07/03 11:28:28;;;;;;;1999.90;999.90;;;26.10;97.50;;;;;;4974516;28;20531;-72
2022/07/03 11:31:15;;;;;;;1999.90;999.90;;;26.20;94.50;;;;;;4973582;28;20505;-71
2022/07/03 11:34:00;;;;;;;1999.90;999.90;;;26.10;95.50;;;;;;4973459;28;20448;-72
2022/07/03 11:36:26;;;;;;;1999.90;999.90;;;26.20;97.20;;;;;;4973443;28;20484;-72
2022/07/03 11:38:55;;;;;;;1999.90;999.90;;;26.50;94.80;;;;;;4973598;28;20463;-71
2022/07/03 11:41:21;;;;;;;1999.90;999.90;;;26.40;92.60;;;;;;4973573;28;20293;-71
2022/07/03 11:43:48;;;;;;;1999.90;999.90;;;26.30;93.60;;;;;;4973625;28;20897;-70
2022/07/03 11:46:25;;;;;;;1999.90;999.90;;;26.30;92.80;;;;;;4973478;28;20874;-71
2022/07/03 11:49:14;;;;;;;1999.90;999.90;;;26.00;93.20;;;;;;4973597;28;20492;-71
2022/07/03 11:51:42;;;;;;;1999.90;999.90;;;25.80;94.30;;;;;;4973586;28;20405;-71
2022/07/03 11:54:07;;;;;;;1999.90;999.90;;;26.20;92.50;;;;;;4973510;28;20434;-69
2022/07/03 11:56:34;;;;;;;1999.90;999.90;;;26.50;92.50;;;;;;4973164;28;20478;-69
2022/07/03 11:59:03;;;;;;;1999.90;999.90;;;26.60;92.80;;;;;;4973436;28;20206;-70
2022/07/03 12:01:30;;;;;;;1999.90;999.90;;;26.90;92.80;;;;;;4973336;28;20866;-71
2022/07/03 12:04:09;;;;;;;1999.90;999.90;;;27.00;88.80;;;;;;4973256;28;20850;-70
2022/07/03 12:06:35;;;;;;;1999.90;999.90;;;26.90;87.20;;;;;;4973329;28;20423;-72
2022/07/03 12:09:02;;;;;;;1999.90;999.90;;;27.10;83.50;;;;;;4973336;28;20384;-72
2022/07/03 12:11:27;;;;;;;1999.90;999.90;;;27.50;84.00;;;;;;4973286;28;20445;-71
2022/07/03 12:13:54;;;;;;;1999.90;999.90;;;28.00;77.80;;;;;;4973174;28;20461;-71
2022/07/03 12:16:31;;;;;;;1999.90;999.90;;;28.10;73.90;;;;;;4972925;28;20641;-71
2022/07/03 12:19:04;;;;;;;1999.90;999.90;;;28.10;73.00;;;;;;4973191;28;20458;-71
2022/07/03 12:21:37;;;;;;;1999.90;999.90;;;28.70;65.80;;;;;;4973145;28;20452;-71
2022/07/03 12:24:10;;;;;;;1999.90;999.90;;;28.50;60.10;;;;;;4973173;28;20426;-71